Time;durP1;ratioP1;P1;durP2;ratioP2;P2;SDS_P1;SDS_P2;PMS_P1;PMS_P2;Temp;Humidity;BMP_temperature;BMP_pressure;BME280_temperature;BME280_humidity;BME280_pressure;Samples;Min_cycle;Max_cycle;Signal;HPM_P1;HPM_P2
2022/09/30 00:01:43;;;;;;;2.17;0.40;;;19.40;99.70;;;;;;5080113;28;20019;-80
2022/09/30 00:04:18;;;;;;;3.78;0.50;;;19.40;99.90;;;;;;5059689;28;20082;-76
2022/09/30 00:06:46;;;;;;;1.17;0.50;;;19.50;99.50;;;;;;5061177;28;20028;-77
2022/09/30 00:09:33;;;;;;;4.55;0.75;;;19.60;99.20;;;;;;5068156;28;20162;-78
2022/09/30 00:12:00;;;;;;;4.55;0.57;;;19.70;99.30;;;;;;5083156;28;20020;-77
2022/09/30 00:14:47;;;;;;;5.60;0.90;;;19.60;99.10;;;;;;5059469;28;20390;-81
2022/09/30 00:17:15;;;;;;;2.65;0.77;;;19.60;99.70;;;;;;5070290;28;20020;-83
2022/09/30 00:19:42;;;;;;;3.60;0.40;;;19.90;99.40;;;;;;5048372;28;20115;-83
2022/09/30 00:22:10;;;;;;;4.35;0.50;;;20.20;99.30;;;;;;5073205;28;20028;-86
2022/09/30 00:24:37;;;;;;;2.78;0.70;;;20.50;98.80;;;;;;5060081;28;20051;-82
2022/09/30 00:27:05;;;;;;;4.03;0.88;;;20.70;98.20;;;;;;5051899;28;20040;-79
2022/09/30 00:29:32;;;;;;;3.47;0.77;;;20.90;97.80;;;;;;5069236;28;20111;-81
2022/09/30 00:32:00;;;;;;;5.25;0.73;;;20.70;97.60;;;;;;5067140;28;20041;-87
2022/09/30 00:34:27;;;;;;;3.75;0.50;;;20.40;97.30;;;;;;5068708;28;20032;-84
2022/09/30 00:36:55;;;;;;;1.88;0.80;;;20.00;98.80;;;;;;5073353;28;20447;-84
2022/09/30 00:39:26;;;;;;;2.15;0.60;;;19.60;98.90;;;;;;5073302;28;20047;-81
2022/09/30 00:42:00;;;;;;;2.88;0.77;;;19.20;99.50;;;;;;5072509;28;20029;-87
2022/09/30 00:44:54;;;;;;;6.05;1.40;;;18.90;99.70;;;;;;5057467;28;20028;-83
2022/09/30 00:47:24;;;;;;;4.10;1.13;;;19.00;99.80;;;;;;5060188;28;20021;-83
2022/09/30 00:49:52;;;;;;;3.25;1.05;;;19.10;99.90;;;;;;5066127;28;20444;-81
2022/09/30 00:52:20;;;;;;;4.90;1.35;;;19.20;99.40;;;;;;5069896;28;20551;-81
2022/09/30 00:54:47;;;;;;;4.68;0.77;;;19.40;99.20;;;;;;5064070;28;20102;-78
2022/09/30 00:57:15;;;;;;;4.07;1.02;;;19.40;98.60;;;;;;5070967;28;20036;-90
2022/09/30 00:59:46;;;;;;;5.25;0.80;;;19.50;98.60;;;;;;5066559;28;20125;-83
2022/09/30 01:02:15;;;;;;;5.68;1.17;;;19.40;98.60;;;;;;5082844;28;20031;-82
2022/09/30 01:04:43;;;;;;;4.43;1.25;;;19.20;98.50;;;;;;5055760;28;20074;-80
2022/09/30 01:07:12;;;;;;;7.20;1.08;;;19.10;99.00;;;;;;5062363;28;20017;-80
2022/09/30 01:09:42;;;;;;;5.13;0.90;;;18.70;99.90;;;;;;5067693;28;20013;-79
2022/09/30 01:12:20;;;;;;;8.18;1.73;;;18.30;99.90;;;;;;5064797;28;20054;-81
2022/09/30 01:14:52;;;;;;;3.13;0.60;;;18.10;99.90;;;;;;5056848;28;20061;-79
2022/09/30 01:17:52;;;;;;;4.10;1.20;;;18.10;99.90;;;;;;5073495;28;20027;-79
2022/09/30 01:20:35;;;;;;;7.10;1.77;;;18.40;99.90;;;;;;5069290;28;20079;-79
2022/09/30 01:23:23;;;;;;;2.53;0.60;;;18.60;99.90;;;;;;5041892;28;20035;-80
2022/09/30 01:26:06;;;;;;;7.47;1.27;;;18.60;99.90;;;;;;5049503;28;20058;-81
2022/09/30 01:29:05;;;;;;;4.88;0.85;;;18.70;99.90;;;;;;5051471;28;20549;-81
2022/09/30 01:31:49;;;;;;;8.52;0.80;;;18.90;99.90;;;;;;5053450;28;20033;-82
2022/09/30 01:34:52;;;;;;;3.30;1.02;;;19.10;99.90;;;;;;5055698;28;20071;-85
2022/09/30 01:37:54;;;;;;;5.90;1.05;;;19.50;99.90;;;;;;5064898;28;20513;-80
2022/09/30 01:40:46;;;;;;;5.80;1.00;;;19.80;99.90;;;;;;5070989;28;20032;-80
2022/09/30 01:43:37;;;;;;;6.97;0.80;;;20.10;99.40;;;;;;5059776;28;20027;-83
2022/09/30 01:46:32;;;;;;;3.75;0.95;;;20.50;98.40;;;;;;5049280;28;20039;-83
2022/09/30 01:49:07;;;;;;;1.88;0.73;;;21.40;98.70;;;;;;5059049;28;20036;-91
2022/09/30 01:51:50;;;;;;;6.85;0.98;;;22.00;97.40;;;;;;5058758;28;20020;-86
2022/09/30 01:54:25;;;;;;;4.93;1.08;;;22.20;97.20;;;;;;5067107;28;20043;-88
2022/09/30 01:57:00;;;;;;;6.10;0.68;;;21.60;96.60;;;;;;5072147;28;20025;-88
2022/09/30 01:59:35;;;;;;;3.33;0.75;;;21.10;97.20;;;;;;5054848;28;20068;-83
2022/09/30 02:02:02;;;;;;;;;;;20.80;96.80;;;;;;5060058;28;20506;-84
2022/09/30 02:04:36;;;;;;;6.28;1.30;;;20.70;97.40;;;;;;5060597;28;19908;-82
2022/09/30 02:07:08;;;;;;;11.80;1.08;;;20.60;97.50;;;;;;5071734;28;20036;-90
2022/09/30 02:09:48;;;;;;;7.07;2.13;;;20.50;97.30;;;;;;5063033;28;20024;-80
2022/09/30 02:12:20;;;;;;;6.45;1.17;;;20.20;97.00;;;;;;5065548;28;20029;-83
2022/09/30 02:15:10;;;;;;;6.00;1.08;;;19.80;97.10;;;;;;5061742;28;20499;-81
2022/09/30 02:17:50;;;;;;;9.93;1.25;;;19.60;98.00;;;;;;5067935;28;20040;-88
2022/09/30 02:20:27;;;;;;;3.58;1.02;;;19.50;98.30;;;;;;5067648;28;20036;-91
2022/09/30 02:23:02;;;;;;;5.53;0.63;;;19.60;98.10;;;;;;5065231;28;20021;-90
2022/09/30 02:25:35;;;;;;;6.65;1.15;;;19.90;97.90;;;;;;5068159;28;20104;-89
2022/09/30 02:28:07;;;;;;;14.93;1.27;;;20.10;98.00;;;;;;5062654;28;20025;-89
2022/09/30 02:30:43;;;;;;;3.80;1.23;;;20.90;98.10;;;;;;5053584;28;20071;-91
2022/09/30 02:33:17;;;;;;;2.63;1.05;;;21.50;97.50;;;;;;5060340;28;20064;-87
2022/09/30 02:35:49;;;;;;;10.25;1.23;;;22.20;96.10;;;;;;5072516;28;20120;-82
2022/09/30 02:38:24;;;;;;;3.13;0.90;;;22.00;95.60;;;;;;5060794;28;20071;-85
2022/09/30 02:41:05;;;;;;;5.17;0.73;;;21.70;95.70;;;;;;5054954;28;20036;-87
2022/09/30 02:43:33;;;;;;;6.22;0.88;;;21.60;95.70;;;;;;5055882;28;20392;-86
2022/09/30 02:46:31;;;;;;;5.93;0.88;;;21.50;95.20;;;;;;5051465;28;20017;-84
2022/09/30 02:49:07;;;;;;;3.17;0.80;;;21.40;95.70;;;;;;5058827;28;20107;-82
2022/09/30 02:51:53;;;;;;;3.75;1.13;;;22.10;95.30;;;;;;5058039;28;20035;-84
2022/09/30 02:54:58;;;;;;;8.50;0.93;;;22.80;95.10;;;;;;5061889;28;20029;-86
2022/09/30 02:57:47;;;;;;;12.20;1.65;;;23.40;93.90;;;;;;5063382;28;20590;-90
2022/09/30 03:00:15;;;;;;;2.15;0.60;;;23.90;93.80;;;;;;5060881;28;20681;-88
2022/09/30 03:02:42;;;;;;;5.55;0.70;;;24.10;93.20;;;;;;5086294;28;20066;-85
2022/09/30 03:05:11;;;;;;;4.82;1.52;;;24.30;92.80;;;;;;5059549;28;20029;-87
2022/09/30 03:07:39;;;;;;;4.53;1.63;;;24.40;92.00;;;;;;5068479;28;20024;-84
2022/09/30 03:10:17;;;;;;;4.15;0.80;;;24.20;93.00;;;;;;5074461;28;20024;-87
2022/09/30 03:12:44;;;;;;;4.47;0.90;;;23.80;92.10;;;;;;5061305;28;20025;-86
2022/09/30 03:15:25;;;;;;;5.05;0.75;;;22.80;92.10;;;;;;5070639;28;20035;-87
2022/09/30 03:18:01;;;;;;;5.22;1.10;;;21.90;92.90;;;;;;5068607;28;20479;-85
2022/09/30 03:20:37;;;;;;;6.13;1.60;;;21.50;94.00;;;;;;5069797;28;20106;-88
2022/09/30 03:23:38;;;;;;;6.15;0.88;;;21.20;93.70;;;;;;5082030;28;20079;-85
2022/09/30 03:26:25;;;;;;;4.20;0.60;;;20.90;94.00;;;;;;5057200;28;20243;-88
2022/09/30 03:29:13;;;;;;;3.45;0.73;;;20.90;94.20;;;;;;5067409;28;20029;-93
2022/09/30 03:32:17;;;;;;;3.28;0.93;;;20.80;94.50;;;;;;5067179;28;20491;-89
2022/09/30 03:35:08;;;;;;;2.35;1.05;;;20.80;94.50;;;;;;5068789;28;20032;-84
2022/09/30 03:37:55;;;;;;;3.95;0.90;;;20.80;94.40;;;;;;5074076;28;20081;-81
2022/09/30 03:40:28;;;;;;;3.05;1.02;;;21.30;94.40;;;;;;5074598;28;20034;-85
2022/09/30 03:43:24;;;;;;;7.13;1.40;;;21.90;93.80;;;;;;5074518;28;20068;-88
2022/09/30 03:45:58;;;;;;;5.50;1.63;;;22.00;94.30;;;;;;5043797;28;20044;-83
2022/09/30 03:48:28;;;;;;;5.85;0.68;;;22.00;93.30;;;;;;5079501;28;20067;-85
2022/09/30 03:50:58;;;;;;;5.55;0.93;;;21.90;93.30;;;;;;5072196;28;20371;-88
2022/09/30 03:53:27;;;;;;;4.93;0.73;;;22.00;94.20;;;;;;5076290;28;20355;-90
2022/09/30 03:55:55;;;;;;;6.22;0.98;;;22.10;94.00;;;;;;5083573;28;20020;-87
2022/09/30 03:58:23;;;;;;;3.28;0.65;;;22.00;93.40;;;;;;5074988;28;20119;-87
2022/09/30 04:00:53;;;;;;;4.28;1.17;;;22.10;93.90;;;;;;5069523;28;20167;-86
2022/09/30 04:03:22;;;;;;;5.85;0.77;;;21.90;93.70;;;;;;5063829;28;21893;-84
2022/09/30 04:05:50;;;;;;;5.75;1.25;;;21.50;93.70;;;;;;5061304;28;20041;-84
2022/09/30 04:08:17;;;;;;;4.20;0.80;;;21.30;94.20;;;;;;5060983;28;20748;-85
2022/09/30 04:10:45;;;;;;;3.80;0.68;;;21.10;94.90;;;;;;5076023;28;20072;-81
2022/09/30 04:13:12;;;;;;;6.70;0.70;;;21.00;95.80;;;;;;5066272;28;20093;-89
2022/09/30 04:15:40;;;;;;;4.35;0.50;;;21.00;96.20;;;;;;5067035;28;20035;-85
2022/09/30 04:18:07;;;;;;;2.28;0.63;;;20.80;95.90;;;;;;5065877;28;20021;-89
2022/09/30 04:20:35;;;;;;;2.72;0.60;;;20.60;96.30;;;;;;5061155;28;22514;-83
2022/09/30 04:23:04;;;;;;;3.22;0.63;;;20.60;96.40;;;;;;5044865;28;20028;-88
2022/09/30 04:25:31;;;;;;;4.82;0.70;;;20.60;96.50;;;;;;5061793;28;20028;-86
2022/09/30 04:27:59;;;;;;;2.90;0.57;;;21.00;96.60;;;;;;5070024;28;20024;-86
2022/09/30 04:30:26;;;;;;;3.22;1.05;;;21.10;96.40;;;;;;5061723;28;20039;-82
2022/09/30 04:32:54;;;;;;;4.68;0.90;;;20.90;96.40;;;;;;5068600;28;20076;-85
2022/09/30 04:35:21;;;;;;;2.25;0.70;;;20.90;96.80;;;;;;5057176;28;20025;-82
2022/09/30 04:37:49;;;;;;;5.20;0.73;;;21.20;96.30;;;;;;5068084;28;20578;-85
2022/09/30 04:40:16;;;;;;;5.63;0.90;;;21.50;96.10;;;;;;5072807;28;20076;-88
2022/09/30 04:42:44;;;;;;;2.28;1.00;;;21.80;95.40;;;;;;5071298;28;20027;-88
2022/09/30 04:45:13;;;;;;;8.35;1.75;;;22.30;95.30;;;;;;5054552;28;20160;-80
2022/09/30 04:47:47;;;;;;;12.02;1.85;;;22.50;95.60;;;;;;5070446;28;20101;-82
2022/09/30 04:50:14;;;;;;;3.72;1.00;;;22.10;95.90;;;;;;5080156;28;20020;-82
2022/09/30 04:52:45;;;;;;;8.75;2.03;;;22.00;96.10;;;;;;5061074;28;20082;-79
2022/09/30 04:55:13;;;;;;;7.78;0.88;;;21.50;97.20;;;;;;5068523;28;20487;-81
2022/09/30 04:57:44;;;;;;;4.97;0.82;;;21.20;97.70;;;;;;5065064;28;20032;-81
2022/09/30 05:00:12;;;;;;;3.03;0.40;;;21.40;98.40;;;;;;5059711;28;20113;-80
2022/09/30 05:02:42;;;;;;;3.45;0.65;;;21.20;97.40;;;;;;5067556;28;20024;-83
2022/09/30 05:05:09;;;;;;;5.03;0.40;;;20.90;97.30;;;;;;5053141;28;20024;-84
2022/09/30 05:07:37;;;;;;;3.53;0.40;;;20.60;98.00;;;;;;5062391;28;20052;-81
2022/09/30 05:10:04;;;;;;;6.25;0.80;;;20.30;98.10;;;;;;5057561;28;20064;-81
2022/09/30 05:12:32;;;;;;;3.25;0.45;;;20.00;98.60;;;;;;5059379;28;20048;-81
2022/09/30 05:15:00;;;;;;;5.20;1.58;;;19.70;98.80;;;;;;5070338;28;20052;-79
2022/09/30 05:17:30;;;;;;;5.45;1.05;;;19.70;99.10;;;;;;5057637;28;20029;-79
2022/09/30 05:19:58;;;;;;;4.05;0.65;;;19.60;99.30;;;;;;5057225;28;20050;-80
2022/09/30 05:22:26;;;;;;;3.00;0.60;;;19.60;99.50;;;;;;5067314;28;20457;-79
2022/09/30 05:24:57;;;;;;;5.60;0.40;;;19.50;99.60;;;;;;5060502;28;20031;-79
2022/09/30 05:27:25;;;;;;;4.32;0.80;;;19.40;99.90;;;;;;5067081;28;20029;-81
2022/09/30 05:29:52;;;;;;;3.05;0.57;;;19.20;99.90;;;;;;5052110;28;20029;-82
2022/09/30 05:32:21;;;;;;;3.50;0.75;;;19.10;99.90;;;;;;5065795;28;20048;-81
2022/09/30 05:34:48;;;;;;;5.03;0.50;;;19.30;99.90;;;;;;5074838;28;20025;-81
2022/09/30 05:37:15;;;;;;;1.77;0.80;;;19.20;99.90;;;;;;5072605;28;20021;-82
2022/09/30 05:39:43;;;;;;;4.28;0.52;;;19.30;99.90;;;;;;5068631;28;20044;-84
2022/09/30 05:42:10;;;;;;;3.85;0.60;;;19.50;99.90;;;;;;5057539;28;20028;-80
2022/09/30 05:44:38;;;;;;;4.68;0.75;;;19.70;99.50;;;;;;5055076;28;20029;-85
2022/09/30 05:47:05;;;;;;;3.00;0.60;;;19.70;99.80;;;;;;5050438;28;20024;-84
2022/09/30 05:49:33;;;;;;;2.67;0.45;;;19.90;99.90;;;;;;5063700;28;20059;-82
2022/09/30 05:52:01;;;;;;;3.40;0.32;;;20.10;98.60;;;;;;5055785;28;20051;-83
2022/09/30 05:54:28;;;;;;;6.25;1.27;;;20.10;98.20;;;;;;5051375;28;20071;-85
2022/09/30 05:56:55;;;;;;;2.60;0.65;;;20.00;98.70;;;;;;5052736;28;20383;-87
2022/09/30 05:59:23;;;;;;;1.88;0.35;;;19.90;99.00;;;;;;5062490;28;20029;-88
2022/09/30 06:01:51;;;;;;;2.40;0.57;;;19.70;99.00;;;;;;5053245;28;20017;-85
2022/09/30 06:04:18;;;;;;;1.60;0.47;;;19.40;99.30;;;;;;5066915;28;20066;-84
2022/09/30 06:06:47;;;;;;;3.63;0.40;;;19.10;99.60;;;;;;5065121;28;20024;-85
2022/09/30 06:09:15;;;;;;;2.80;0.40;;;18.90;99.90;;;;;;5052324;28;20936;-82
2022/09/30 06:11:42;;;;;;;1.63;0.20;;;18.60;99.90;;;;;;5064292;28;20040;-82
2022/09/30 06:14:10;;;;;;;3.20;0.32;;;18.50;99.90;;;;;;5068336;28;20664;-81
2022/09/30 06:16:37;;;;;;;2.80;0.30;;;18.60;99.90;;;;;;5072085;28;20447;-85
2022/09/30 06:19:05;;;;;;;1.38;0.30;;;18.60;99.90;;;;;;5070317;28;20028;-81
2022/09/30 06:21:32;;;;;;;5.13;0.30;;;18.60;99.90;;;;;;5072203;28;20116;-81
2022/09/30 06:24:00;;;;;;;3.30;0.47;;;18.60;99.90;;;;;;5053419;28;20032;-82
2022/09/30 06:26:27;;;;;;;4.60;0.30;;;18.70;99.90;;;;;;5055063;28;20108;-80
2022/09/30 06:28:55;;;;;;;0.90;0.30;;;18.80;99.90;;;;;;5063483;28;20025;-82
2022/09/30 06:31:23;;;;;;;1.23;0.20;;;18.90;99.50;;;;;;5065772;28;20109;-82
2022/09/30 06:33:52;;;;;;;1.20;0.25;;;19.00;99.30;;;;;;5063223;28;20381;-79
2022/09/30 06:36:24;;;;;;;2.65;0.40;;;18.90;99.10;;;;;;5063217;28;20104;-82
2022/09/30 06:38:53;;;;;;;1.05;0.30;;;18.80;99.50;;;;;;5067528;28;20032;-80
2022/09/30 06:41:26;;;;;;;3.38;0.38;;;18.80;99.60;;;;;;5056073;28;20064;-79
2022/09/30 06:43:55;;;;;;;2.42;0.45;;;18.70;99.70;;;;;;5063728;28;20037;-81
2022/09/30 06:46:24;;;;;;;2.80;0.60;;;18.60;99.90;;;;;;5063510;28;20559;-81
2022/09/30 06:48:57;;;;;;;1.58;0.60;;;18.60;99.90;;;;;;5075128;28;20030;-85
2022/09/30 06:51:25;;;;;;;2.33;0.30;;;18.40;99.90;;;;;;5077733;28;20501;-80
2022/09/30 06:53:53;;;;;;;2.08;0.40;;;18.30;99.90;;;;;;5062771;28;20055;-82
2022/09/30 06:56:20;;;;;;;2.17;0.20;;;18.20;99.90;;;;;;5073177;28;20082;-82
2022/09/30 06:58:48;;;;;;;1.90;0.28;;;18.10;99.90;;;;;;5072084;28;20474;-80
2022/09/30 07:01:15;;;;;;;2.35;0.32;;;18.10;99.90;;;;;;5072429;28;20029;-82
2022/09/30 07:03:45;;;;;;;3.25;0.82;;;18.00;99.90;;;;;;5068456;28;20035;-81
2022/09/30 07:06:14;;;;;;;3.15;0.50;;;17.90;99.90;;;;;;5075583;28;20040;-80
2022/09/30 07:08:42;;;;;;;5.22;0.30;;;18.00;99.90;;;;;;5072296;28;20461;-83
2022/09/30 07:11:15;;;;;;;1.17;0.40;;;17.90;99.90;;;;;;5069597;28;21708;-82
2022/09/30 07:13:44;;;;;;;3.92;1.23;;;17.90;99.90;;;;;;5056015;28;20029;-80
2022/09/30 07:16:13;;;;;;;3.00;0.60;;;17.80;99.90;;;;;;5053221;28;20029;-81
2022/09/30 07:18:41;;;;;;;5.25;0.90;;;17.70;99.90;;;;;;5056284;28;20033;-79
2022/09/30 07:21:11;;;;;;;2.33;0.68;;;17.70;99.90;;;;;;5054121;28;20389;-81
2022/09/30 07:23:44;;;;;;;4.07;0.43;;;17.50;99.90;;;;;;5053334;28;20036;-82
2022/09/30 07:26:12;;;;;;;4.07;0.77;;;17.40;99.90;;;;;;5054483;28;20478;-79
2022/09/30 07:28:39;;;;;;;4.32;0.88;;;17.30;99.90;;;;;;5053330;28;20447;-79
2022/09/30 07:31:12;;;;;;;3.22;0.60;;;17.20;99.90;;;;;;5055117;28;20037;-78
2022/09/30 07:33:40;;;;;;;3.80;0.85;;;17.20;99.90;;;;;;5052500;28;20154;-77
2022/09/30 07:36:07;;;;;;;2.70;0.52;;;17.10;99.90;;;;;;5054709;28;20120;-79
2022/09/30 07:38:38;;;;;;;6.18;1.20;;;17.10;99.90;;;;;;5052252;28;20036;-79
2022/09/30 07:41:15;;;;;;;3.75;1.30;;;17.00;99.90;;;;;;5061410;28;20024;-80
2022/09/30 07:43:47;;;;;;;2.53;1.23;;;16.90;99.90;;;;;;5050259;28;20035;-79
2022/09/30 07:46:19;;;;;;;1.85;1.00;;;16.80;99.90;;;;;;5058489;28;20081;-79
2022/09/30 07:48:51;;;;;;;7.30;1.55;;;16.60;99.90;;;;;;5051467;28;20033;-79
2022/09/30 07:51:22;;;;;;;2.05;1.88;;;16.60;99.90;;;;;;5053564;28;20029;-82
2022/09/30 07:53:53;;;;;;;4.63;2.03;;;16.50;99.90;;;;;;5054869;28;20111;-82
2022/09/30 07:56:22;;;;;;;4.65;1.15;;;16.50;99.90;;;;;;5054208;28;20025;-80
2022/09/30 07:58:54;;;;;;;3.05;0.80;;;16.40;99.90;;;;;;5052507;28;20495;-79
2022/09/30 08:01:23;;;;;;;2.83;0.70;;;16.30;99.90;;;;;;5054733;28;20051;-80
2022/09/30 08:03:54;;;;;;;1.83;1.00;;;16.20;99.90;;;;;;5053976;28;20021;-81
2022/09/30 08:06:23;;;;;;;2.70;1.23;;;16.20;99.90;;;;;;5056512;28;20016;-82
2022/09/30 08:08:53;;;;;;;6.65;1.55;;;16.10;99.90;;;;;;5055590;28;20025;-79
2022/09/30 08:11:21;;;;;;;2.65;0.60;;;16.10;99.90;;;;;;5058757;28;20021;-77
2022/09/30 08:13:53;;;;;;;3.42;0.88;;;16.10;99.90;;;;;;5069042;28;20116;-80
2022/09/30 08:16:21;;;;;;;3.92;1.90;;;16.00;99.90;;;;;;5069684;28;20510;-80
2022/09/30 08:18:49;;;;;;;4.82;1.27;;;16.00;99.90;;;;;;5050390;28;20036;-83
2022/09/30 08:21:16;;;;;;;2.60;1.10;;;16.00;99.90;;;;;;5056581;28;20024;-81
2022/09/30 08:23:43;;;;;;;5.47;1.80;;;15.90;99.90;;;;;;5052467;28;20021;-79
2022/09/30 08:26:13;;;;;;;4.00;0.70;;;15.90;99.90;;;;;;5071473;28;20490;-81
2022/09/30 08:28:42;;;;;;;3.08;1.40;;;15.80;99.90;;;;;;5053869;28;20169;-81
2022/09/30 08:31:13;;;;;;;5.25;1.88;;;15.70;99.90;;;;;;5056881;28;20464;-82
2022/09/30 08:33:41;;;;;;;7.43;1.98;;;15.70;99.90;;;;;;5052606;28;20074;-81
2022/09/30 08:36:12;;;;;;;6.07;1.08;;;15.70;99.90;;;;;;5049008;28;20036;-81
2022/09/30 08:38:40;;;;;;;2.58;1.20;;;15.60;99.90;;;;;;5053182;28;20067;-81
2022/09/30 08:41:28;;;;;;;4.47;2.83;;;15.60;99.90;;;;;;5052950;28;20033;-80
2022/09/30 08:44:27;;;;;;;4.78;1.25;;;15.60;99.90;;;;;;5061782;28;20031;-79
2022/09/30 08:47:15;;;;;;;4.03;1.15;;;15.60;99.90;;;;;;5058900;28;20041;-79
2022/09/30 08:50:09;;;;;;;4.03;0.80;;;15.60;99.90;;;;;;5059779;28;20063;-79
2022/09/30 08:52:48;;;;;;;3.92;0.80;;;15.50;99.90;;;;;;5051545;28;20078;-76
2022/09/30 08:55:25;;;;;;;5.93;1.60;;;15.50;99.90;;;;;;5071220;28;20048;-78
2022/09/30 08:57:55;;;;;;;6.70;1.35;;;15.50;99.90;;;;;;5080044;28;20033;-79
2022/09/30 09:00:23;;;;;;;3.47;1.00;;;15.50;99.90;;;;;;5071775;28;20040;-80
2022/09/30 09:02:59;;;;;;;3.47;1.20;;;15.50;99.90;;;;;;5059009;28;20032;-80
2022/09/30 09:05:36;;;;;;;5.47;2.03;;;15.50;99.90;;;;;;5082886;28;20035;-79
2022/09/30 09:08:34;;;;;;;3.40;0.80;;;15.40;99.90;;;;;;5057290;28;20052;-82
2022/09/30 09:11:32;;;;;;;6.63;1.75;;;15.30;99.90;;;;;;5062087;28;20021;-80
2022/09/30 09:13:59;;;;;;;10.68;1.42;;;15.10;99.90;;;;;;5059362;28;20060;-82
2022/09/30 09:16:38;;;;;;;6.75;1.23;;;15.00;99.90;;;;;;5057164;28;20110;-80
2022/09/30 09:19:11;;;;;;;7.30;1.88;;;14.80;99.90;;;;;;5068733;28;20565;-81
2022/09/30 09:21:52;;;;;;;11.77;2.05;;;14.80;99.90;;;;;;5054158;28;20037;-80
2022/09/30 09:24:26;;;;;;;11.52;2.35;;;14.70;99.90;;;;;;5070229;28;20471;-79
2022/09/30 09:26:56;;;;;;;10.93;1.83;;;14.60;99.90;;;;;;5053805;28;20032;-78
2022/09/30 09:29:32;;;;;;;10.25;2.28;;;14.60;99.90;;;;;;5053863;28;20024;-81
2022/09/30 09:32:02;;;;;;;12.93;3.28;;;14.60;99.90;;;;;;5049933;28;21909;-81
2022/09/30 09:34:30;;;;;;;15.50;2.00;;;14.60;99.90;;;;;;5055963;28;20090;-84
2022/09/30 09:40:59;;;;;;;14.52;2.55;;;14.50;99.90;;;;;;5011219;28;20166;-88
2022/09/30 09:43:42;;;;;;;9.52;2.05;;;14.50;99.90;;;;;;5050274;28;20032;-84
2022/09/30 09:46:21;;;;;;;10.27;2.75;;;14.50;99.90;;;;;;5056654;28;20029;-87
2022/09/30 09:48:55;;;;;;;12.68;2.67;;;14.50;99.90;;;;;;5051677;28;20052;-83
2022/09/30 09:51:34;;;;;;;16.88;3.42;;;14.50;99.90;;;;;;5065793;28;20056;-83
2022/09/30 09:54:04;;;;;;;11.18;2.83;;;14.60;99.90;;;;;;5050095;28;20436;-82
2022/09/30 09:56:32;;;;;;;13.88;2.05;;;14.50;99.90;;;;;;5052786;28;20034;-84
2022/09/30 09:59:17;;;;;;;12.07;3.38;;;14.50;99.90;;;;;;5052426;28;20043;-82
2022/09/30 10:01:46;;;;;;;7.47;1.48;;;14.60;99.90;;;;;;5053055;28;20024;-84
2022/09/30 10:04:27;;;;;;;11.40;2.35;;;14.60;99.90;;;;;;5057903;28;20371;-84
2022/09/30 10:07:01;;;;;;;11.85;2.80;;;14.60;99.90;;;;;;5056778;28;21565;-83
2022/09/30 10:09:36;;;;;;;9.20;1.63;;;14.60;99.90;;;;;;5057251;28;20064;-81
2022/09/30 10:12:06;;;;;;;15.77;2.67;;;14.60;99.90;;;;;;5067638;28;20017;-80
2022/09/30 10:14:33;;;;;;;7.60;2.78;;;14.60;99.90;;;;;;5056396;28;20033;-82
2022/09/30 10:17:04;;;;;;;13.93;2.05;;;14.60;99.90;;;;;;5057800;28;20029;-82
2022/09/30 10:19:34;;;;;;;16.60;2.35;;;14.60;99.90;;;;;;5057245;28;20036;-83
2022/09/30 10:22:13;;;;;;;7.60;2.08;;;14.60;99.90;;;;;;5062156;28;20386;-82
2022/09/30 10:24:41;;;;;;;12.55;2.78;;;14.60;99.90;;;;;;5051768;28;20033;-80
2022/09/30 10:27:33;;;;;;;17.58;3.38;;;14.60;99.90;;;;;;5054941;28;22064;-81
2022/09/30 10:30:01;;;;;;;18.83;3.15;;;14.60;99.90;;;;;;5054109;28;20111;-80
2022/09/30 10:32:29;;;;;;;11.23;2.85;;;14.60;99.90;;;;;;5055009;28;20044;-82
2022/09/30 10:35:20;;;;;;;10.65;3.13;;;14.60;99.90;;;;;;5054820;28;20063;-79
2022/09/30 10:37:52;;;;;;;14.13;2.17;;;14.60;99.90;;;;;;5053928;28;20072;-81
2022/09/30 10:40:26;;;;;;;14.48;3.22;;;14.60;99.90;;;;;;5063518;28;20041;-78
2022/09/30 10:42:55;;;;;;;13.55;2.58;;;14.50;99.90;;;;;;5055011;28;20109;-82
2022/09/30 10:45:44;;;;;;;7.28;2.42;;;14.50;99.90;;;;;;5055823;28;20037;-77
2022/09/30 10:48:21;;;;;;;16.05;2.20;;;14.50;99.90;;;;;;5053287;28;20028;-77
2022/09/30 10:50:55;;;;;;;10.82;3.03;;;14.50;99.90;;;;;;5056956;28;21032;-79
2022/09/30 10:53:28;;;;;;;13.73;3.83;;;14.50;99.90;;;;;;5054077;28;20032;-78
2022/09/30 10:55:56;;;;;;;11.50;3.05;;;14.50;99.90;;;;;;5053123;28;20043;-77
2022/09/30 10:58:48;;;;;;;6.22;1.95;;;14.40;99.90;;;;;;5059704;28;20032;-78
2022/09/30 11:01:31;;;;;;;12.10;3.17;;;14.40;99.90;;;;;;5053461;28;20083;-77
2022/09/30 11:04:10;;;;;;;11.80;2.75;;;14.40;99.90;;;;;;5064980;28;20028;-77
2022/09/30 11:06:42;;;;;;;14.05;5.28;;;14.30;99.90;;;;;;5063087;28;20119;-78
2022/09/30 11:09:42;;;;;;;17.15;7.70;;;14.30;99.90;;;;;;5052758;28;20648;-78
2022/09/30 11:12:35;;;;;;;14.68;6.95;;;14.30;99.90;;;;;;5054103;28;20131;-79
2022/09/30 11:15:05;;;;;;;15.77;8.35;;;14.30;99.90;;;;;;5056162;28;20070;-78
2022/09/30 11:17:41;;;;;;;12.77;5.32;;;14.30;99.90;;;;;;5054837;28;20044;-77
2022/09/30 11:20:19;;;;;;;8.63;5.70;;;14.30;99.90;;;;;;5055279;28;20539;-79
2022/09/30 11:23:01;;;;;;;12.18;5.45;;;14.30;99.90;;;;;;5053326;28;20059;-78
2022/09/30 11:25:56;;;;;;;12.65;4.85;;;14.30;99.90;;;;;;5055105;28;20542;-78
2022/09/30 11:28:41;;;;;;;6.40;5.63;;;14.30;99.90;;;;;;5031996;28;20055;-78
2022/09/30 11:31:16;;;;;;;11.13;7.53;;;14.30;99.90;;;;;;5052531;28;20029;-78
2022/09/30 11:34:14;;;;;;;10.68;5.22;;;14.20;99.90;;;;;;5056935;28;20850;-78
2022/09/30 11:37:08;;;;;;;7.65;2.67;;;14.30;99.90;;;;;;5052567;28;20135;-79
2022/09/30 11:39:45;;;;;;;13.25;4.07;;;14.30;99.90;;;;;;5054390;28;20037;-78
2022/09/30 11:42:23;;;;;;;12.93;2.60;;;14.30;99.90;;;;;;5054670;28;20116;-78
2022/09/30 11:45:14;;;;;;;12.48;3.22;;;14.30;99.90;;;;;;5052692;28;20016;-79
2022/09/30 11:48:02;;;;;;;9.70;3.15;;;14.30;99.90;;;;;;5063811;28;20052;-77
2022/09/30 11:50:53;;;;;;;10.95;2.22;;;14.30;99.90;;;;;;5056428;28;20361;-79
2022/09/30 11:53:26;;;;;;;9.65;2.83;;;14.30;99.90;;;;;;5046562;28;20429;-76
2022/09/30 11:56:06;;;;;;;8.43;2.20;;;14.30;99.90;;;;;;5066773;28;20016;-78
2022/09/30 11:58:48;;;;;;;4.18;1.60;;;14.20;99.90;;;;;;5061913;28;20120;-81
2022/09/30 12:01:16;;;;;;;12.50;2.15;;;14.20;99.90;;;;;;5060422;28;20044;-81
2022/09/30 12:04:06;;;;;;;7.20;2.05;;;14.20;99.90;;;;;;5054568;28;20033;-80
2022/09/30 12:06:59;;;;;;;8.70;1.80;;;14.20;99.90;;;;;;5051744;28;20045;-79
2022/09/30 12:09:55;;;;;;;6.82;1.73;;;14.10;99.90;;;;;;5047635;28;20052;-79
2022/09/30 12:12:22;;;;;;;11.07;1.80;;;14.10;99.90;;;;;;5050017;28;20037;-79
2022/09/30 12:15:03;;;;;;;9.02;2.70;;;14.10;99.90;;;;;;5051187;28;20024;-85
2022/09/30 12:17:36;;;;;;;16.80;3.22;;;14.10;99.90;;;;;;5051159;28;20028;-80
2022/09/30 12:20:15;;;;;;;13.45;2.83;;;14.10;99.90;;;;;;5054863;28;20037;-81
2022/09/30 12:22:46;;;;;;;9.45;2.20;;;14.10;99.90;;;;;;5052749;28;20021;-82
2022/09/30 12:25:30;;;;;;;9.75;1.77;;;14.10;99.90;;;;;;5053683;28;20027;-79
2022/09/30 12:31:34;;;;;;;10.55;2.45;;;14.10;99.90;;;;;;5048009;28;20040;-77
2022/09/30 12:34:43;;;;;;;13.00;1.80;;;14.10;99.90;;;;;;5062712;28;20040;-80
2022/09/30 12:37:30;;;;;;;9.52;2.08;;;14.10;99.90;;;;;;5060346;28;20028;-79
2022/09/30 12:40:28;;;;;;;12.98;2.45;;;14.10;99.90;;;;;;5036326;28;20048;-80
2022/09/30 12:43:26;;;;;;;10.40;1.58;;;14.10;99.90;;;;;;5058444;28;20029;-78
2022/09/30 12:46:12;;;;;;;11.98;2.08;;;14.10;99.90;;;;;;5053013;28;20024;-79
2022/09/30 12:48:54;;;;;;;8.52;3.75;;;14.10;99.90;;;;;;5062411;28;20034;-80
2022/09/30 12:51:32;;;;;;;8.52;4.53;;;14.10;99.90;;;;;;5054442;28;21664;-80
2022/09/30 12:54:05;;;;;;;10.90;4.97;;;14.10;99.90;;;;;;5054498;28;20025;-79
2022/09/30 12:56:36;;;;;;;15.18;7.10;;;14.10;99.90;;;;;;5054753;28;20501;-78
2022/09/30 12:59:04;;;;;;;12.32;6.18;;;14.10;99.90;;;;;;5054480;28;20147;-77
2022/09/30 13:01:35;;;;;;;16.50;4.63;;;14.10;99.90;;;;;;5055350;28;20032;-77
2022/09/30 13:04:02;;;;;;;13.95;3.15;;;14.10;99.90;;;;;;5069652;28;20027;-81
2022/09/30 13:06:47;;;;;;;12.93;2.15;;;14.10;99.90;;;;;;5077907;28;20024;-81
2022/09/30 13:09:23;;;;;;;11.90;1.92;;;14.10;99.90;;;;;;5060910;28;20039;-81
2022/09/30 13:11:57;;;;;;;10.70;1.88;;;14.10;99.90;;;;;;5062216;28;20138;-81
2022/09/30 13:14:35;;;;;;;5.88;2.22;;;14.10;99.90;;;;;;5072857;28;20055;-81
2022/09/30 13:17:08;;;;;;;9.35;1.63;;;14.00;99.90;;;;;;5059096;28;20036;-80
2022/09/30 13:19:39;;;;;;;13.85;2.63;;;14.10;99.90;;;;;;5076720;28;20040;-79
2022/09/30 13:25:03;;;;;;;10.80;2.75;;;14.00;99.90;;;;;;5071288;28;20042;-79
2022/09/30 13:27:40;;;;;;;14.45;2.72;;;14.00;99.90;;;;;;5081614;28;20050;-79
2022/09/30 13:30:16;;;;;;;10.63;1.80;;;14.00;99.90;;;;;;5077616;28;20027;-79
2022/09/30 13:32:50;;;;;;;20.73;3.28;;;14.00;99.90;;;;;;5066024;28;20080;-79
2022/09/30 13:35:38;;;;;;;9.35;1.73;;;14.00;99.90;;;;;;5077438;28;20012;-80